Time;durP1;ratioP1;P1;durP2;ratioP2;P2;SDS_P1;SDS_P2;PMS_P1;PMS_P2;Temp;Humidity;BMP_temperature;BMP_pressure;BME280_temperature;BME280_humidity;BME280_pressure;Samples;Min_cycle;Max_cycle;Signal;HPM_P1;HPM_P2
2023/09/24 00:02:11;;;;;;;15.88;12.07;;;;;;;;;;4964550;28;20081;-73
2023/09/24 00:04:37;;;;;;;15.43;11.70;;;;;;;;;;4964712;28;20038;-74
2023/09/24 00:07:05;;;;;;;16.02;11.80;;;;;;;;;;4961705;28;20038;-73
2023/09/24 00:09:31;;;;;;;12.90;11.55;;;;;;;;;;4992591;28;20146;-74
2023/09/24 00:11:57;;;;;;;12.98;11.77;;;;;;;;;;4965428;28;20039;-74
2023/09/24 00:14:26;;;;;;;12.20;11.05;;;;;;;;;;4968085;28;20399;-74
2023/09/24 00:16:52;;;;;;;12.27;11.13;;;;;;;;;;4965066;28;20476;-74
2023/09/24 00:19:17;;;;;;;12.15;11.13;;;;;;;;;;4981683;28;20412;-74
2023/09/24 00:21:43;;;;;;;12.20;11.20;;;;;;;;;;4983237;28;20042;-74
2023/09/24 00:24:10;;;;;;;12.80;11.80;;;;;;;;;;4999613;28;20121;-74
2023/09/24 00:26:36;;;;;;;12.55;11.45;;;;;;;;;;4983491;28;20047;-74
2023/09/24 00:29:03;;;;;;;12.40;11.27;;;;;;;;;;4964775;28;20045;-74
2023/09/24 00:31:29;;;;;;;12.52;11.30;;;;;;;;;;4996847;28;20865;-75
2023/09/24 00:33:55;;;;;;;12.23;11.25;;;;;;;;;;4964876;28;20065;-74
2023/09/24 00:36:22;;;;;;;13.05;11.77;;;;;;;;;;4981086;28;20058;-74
2023/09/24 00:38:49;;;;;;;12.88;11.77;;;;;;;;;;4994423;28;21586;-74
2023/09/24 00:41:15;;;;;;;12.30;11.20;;;;;;;;;;4998207;28;20039;-75
2023/09/24 00:43:43;;;;;;;14.27;11.73;;;;;;;;;;4963169;28;20707;-75
2023/09/24 00:46:09;;;;;;;13.75;12.32;;;;;;;;;;4963976;28;20054;-75
2023/09/24 00:48:36;;;;;;;13.00;11.40;;;;;;;;;;4980531;28;20062;-74
2023/09/24 00:51:19;;;;;;;12.45;11.35;;;;;;;;;;4965764;28;20039;-74
2023/09/24 00:53:46;;;;;;;12.93;10.95;;;;;;;;;;4969747;28;20501;-74
2023/09/24 00:56:12;;;;;;;13.80;11.85;;;;;;;;;;4968704;28;20043;-74
2023/09/24 00:58:38;;;;;;;13.27;12.00;;;;;;;;;;4964347;28;20061;-75
2023/09/24 01:01:05;;;;;;;12.65;11.55;;;;;;;;;;4979108;28;20121;-74
2023/09/24 01:03:31;;;;;;;12.18;11.02;;;;;;;;;;4962477;28;20042;-74
2023/09/24 01:05:57;;;;;;;12.50;11.40;;;;;;;;;;4963997;28;20393;-75
2023/09/24 01:08:25;;;;;;;12.15;11.15;;;;;;;;;;4967880;28;20046;-74
2023/09/24 01:10:52;;;;;;;12.65;11.52;;;;;;;;;;4988469;28;20026;-75
2023/09/24 01:13:24;;;;;;;12.35;11.15;;;;;;;;;;4966462;28;20046;-74
2023/09/24 01:15:51;;;;;;;12.85;11.75;;;;;;;;;;4970159;28;20045;-74
2023/09/24 01:18:18;;;;;;;14.52;11.73;;;;;;;;;;4968699;28;20142;-74
2023/09/24 01:20:44;;;;;;;13.45;11.68;;;;;;;;;;4994778;28;20066;-74
2023/09/24 01:23:10;;;;;;;13.40;11.40;;;;;;;;;;4965612;28;20978;-73
2023/09/24 01:25:37;;;;;;;12.65;11.32;;;;;;;;;;4993470;28;20027;-74
2023/09/24 01:28:04;;;;;;;13.05;12.02;;;;;;;;;;4970963;28;20708;-74
2023/09/24 01:30:31;;;;;;;12.25;11.05;;;;;;;;;;4983738;28;20027;-74
2023/09/24 01:32:59;;;;;;;13.35;11.98;;;;;;;;;;4979906;28;20039;-74
2023/09/24 01:35:27;;;;;;;12.90;11.75;;;;;;;;;;4995443;28;20038;-74
2023/09/24 01:38:05;;;;;;;13.07;11.77;;;;;;;;;;4969700;28;20034;-74
2023/09/24 01:40:33;;;;;;;12.38;11.27;;;;;;;;;;4965906;28;20027;-74
2023/09/24 01:42:59;;;;;;;12.60;11.60;;;;;;;;;;4984462;28;20037;-74
2023/09/24 01:45:28;;;;;;;12.48;11.38;;;;;;;;;;4969031;28;20408;-74
2023/09/24 01:47:55;;;;;;;13.35;11.88;;;;;;;;;;4982130;28;20038;-74
2023/09/24 01:50:26;;;;;;;13.20;12.00;;;;;;;;;;4981943;28;20111;-74
2023/09/24 01:52:53;;;;;;;12.75;11.55;;;;;;;;;;4969870;28;20038;-74
2023/09/24 01:55:19;;;;;;;13.07;11.77;;;;;;;;;;4966591;28;20084;-74
2023/09/24 01:57:45;;;;;;;12.85;11.80;;;;;;;;;;4968509;28;20038;-74
2023/09/24 02:00:13;;;;;;;12.65;11.27;;;;;;;;;;4982091;28;20058;-74
2023/09/24 02:02:38;;;;;;;11.88;10.95;;;;;;;;;;4987232;28;20515;-74
2023/09/24 02:05:10;;;;;;;12.88;11.60;;;;;;;;;;4987817;28;20065;-74
2023/09/24 02:07:38;;;;;;;13.45;11.98;;;;;;;;;;4994143;28;20043;-74
2023/09/24 02:10:05;;;;;;;14.52;11.95;;;;;;;;;;5002826;28;20054;-74
2023/09/24 02:12:37;;;;;;;12.82;11.60;;;;;;;;;;5000330;28;20026;-74
2023/09/24 02:15:11;;;;;;;12.52;11.23;;;;;;;;;;5020369;28;20730;-74
2023/09/24 02:17:41;;;;;;;14.23;11.80;;;;;;;;;;4995382;28;20449;-74
2023/09/24 02:20:25;;;;;;;13.23;11.73;;;;;;;;;;4974619;28;20097;-74
2023/09/24 02:22:56;;;;;;;12.25;11.20;;;;;;;;;;4961396;28;20039;-74
2023/09/24 02:25:23;;;;;;;12.60;11.50;;;;;;;;;;5000098;28;20103;-74
2023/09/24 02:27:50;;;;;;;12.32;11.10;;;;;;;;;;4985722;28;20653;-74
2023/09/24 02:30:17;;;;;;;11.98;10.98;;;;;;;;;;4982018;28;20042;-74
2023/09/24 02:32:44;;;;;;;12.80;11.43;;;;;;;;;;4968404;28;20062;-74
2023/09/24 02:35:11;;;;;;;14.55;11.40;;;;;;;;;;4962211;28;20045;-75
2023/09/24 02:37:38;;;;;;;12.45;11.35;;;;;;;;;;4997632;28;20485;-74
2023/09/24 02:40:15;;;;;;;11.60;10.50;;;;;;;;;;4966523;28;20045;-74
2023/09/24 02:42:43;;;;;;;11.77;10.77;;;;;;;;;;4967312;28;20030;-74
2023/09/24 02:45:10;;;;;;;12.13;11.05;;;;;;;;;;4997005;28;20054;-75
2023/09/24 02:47:36;;;;;;;12.27;11.27;;;;;;;;;;4979533;28;20038;-75
2023/09/24 02:50:08;;;;;;;11.68;10.68;;;;;;;;;;4968164;28;20066;-75
2023/09/24 02:52:35;;;;;;;11.75;10.85;;;;;;;;;;4964734;28;20138;-74
2023/09/24 02:55:01;;;;;;;12.60;11.27;;;;;;;;;;4968885;28;20041;-75
2023/09/24 02:57:27;;;;;;;11.60;10.40;;;;;;;;;;4976635;28;20064;-75
2023/09/24 02:59:53;;;;;;;12.55;11.23;;;;;;;;;;4960264;28;20729;-75
2023/09/24 03:02:18;;;;;;;12.68;11.57;;;;;;;;;;4981999;28;20041;-74
2023/09/24 03:04:44;;;;;;;11.18;10.27;;;;;;;;;;4948530;28;20097;-75
2023/09/24 03:07:10;;;;;;;11.63;10.73;;;;;;;;;;4978666;28;20035;-74
2023/09/24 03:09:36;;;;;;;12.18;11.15;;;;;;;;;;4960273;28;20046;-75
2023/09/24 03:12:02;;;;;;;11.43;10.43;;;;;;;;;;4965223;28;20373;-74
2023/09/24 03:14:27;;;;;;;11.88;10.88;;;;;;;;;;4964604;28;20038;-75
2023/09/24 03:16:53;;;;;;;12.93;11.63;;;;;;;;;;4967858;28;21303;-75
2023/09/24 03:19:19;;;;;;;11.68;10.57;;;;;;;;;;4965288;28;20567;-75
2023/09/24 03:21:44;;;;;;;11.13;10.32;;;;;;;;;;4964555;28;20089;-75
2023/09/24 03:24:14;;;;;;;11.30;10.50;;;;;;;;;;4981354;28;20069;-75
2023/09/24 03:26:41;;;;;;;12.38;11.25;;;;;;;;;;4964821;28;20396;-75
2023/09/24 03:29:07;;;;;;;13.82;10.48;;;;;;;;;;4995969;28;20109;-75
2023/09/24 03:31:33;;;;;;;11.02;10.02;;;;;;;;;;4966686;28;20138;-74
2023/09/24 03:34:00;;;;;;;10.50;9.70;;;;;;;;;;4975712;28;20039;-74
2023/09/24 03:36:25;;;;;;;11.52;10.57;;;;;;;;;;4981322;28;20046;-75
2023/09/24 03:38:51;;;;;;;11.68;10.57;;;;;;;;;;4964487;28;20038;-74
2023/09/24 03:41:17;;;;;;;11.40;10.45;;;;;;;;;;4958583;28;20035;-75
2023/09/24 03:43:43;;;;;;;12.43;11.30;;;;;;;;;;4969345;28;20042;-74
2023/09/24 03:46:11;;;;;;;11.63;10.43;;;;;;;;;;4961246;28;20038;-75
2023/09/24 03:48:37;;;;;;;11.38;10.40;;;;;;;;;;4966185;28;20046;-74
2023/09/24 03:51:03;;;;;;;11.57;10.38;;;;;;;;;;4967214;28;20038;-75
2023/09/24 03:53:28;;;;;;;11.07;10.18;;;;;;;;;;4965442;28;20038;-75
2023/09/24 03:55:54;;;;;;;12.00;10.73;;;;;;;;;;4962285;28;20071;-75
2023/09/24 03:58:19;;;;;;;13.27;11.90;;;;;;;;;;4960568;28;20145;-75
2023/09/24 04:00:46;;;;;;;11.48;10.35;;;;;;;;;;4987564;28;20091;-75
2023/09/24 04:03:14;;;;;;;11.52;10.57;;;;;;;;;;5002742;28;20030;-75
2023/09/24 04:05:39;;;;;;;11.98;10.88;;;;;;;;;;4992906;28;20054;-73
2023/09/24 04:08:05;;;;;;;12.10;11.15;;;;;;;;;;4978743;28;20034;-76
2023/09/24 04:10:32;;;;;;;11.50;10.43;;;;;;;;;;4974718;28;20173;-74
2023/09/24 04:12:59;;;;;;;11.10;10.20;;;;;;;;;;4971511;28;20022;-73
2023/09/24 04:15:27;;;;;;;12.07;10.88;;;;;;;;;;4971837;28;20038;-73
2023/09/24 04:17:56;;;;;;;11.85;10.77;;;;;;;;;;4969864;28;20038;-73
2023/09/24 04:20:22;;;;;;;14.93;10.45;;;;;;;;;;4960206;28;20035;-73
2023/09/24 04:22:51;;;;;;;9.38;8.55;;;;;;;;;;4964613;28;20031;-73
2023/09/24 04:25:20;;;;;;;12.05;10.50;;;;;;;;;;4966309;28;20038;-75
2023/09/24 04:27:46;;;;;;;11.73;10.60;;;;;;;;;;4962603;28;20523;-75
2023/09/24 04:30:18;;;;;;;10.98;9.43;;;;;;;;;;4963105;28;20042;-75
2023/09/24 04:32:51;;;;;;;11.55;10.40;;;;;;;;;;4962430;28;20039;-75
2023/09/24 04:35:20;;;;;;;10.48;9.68;;;;;;;;;;4984137;28;20039;-75
2023/09/24 04:37:47;;;;;;;11.43;10.50;;;;;;;;;;4993401;28;20531;-75
2023/09/24 04:40:14;;;;;;;10.68;9.85;;;;;;;;;;4964418;28;21620;-75
2023/09/24 04:42:44;;;;;;;11.13;10.07;;;;;;;;;;4964197;28;20154;-75
2023/09/24 04:45:11;;;;;;;10.70;9.90;;;;;;;;;;4959733;28;20111;-74
2023/09/24 04:47:38;;;;;;;12.98;10.73;;;;;;;;;;4964910;28;20042;-76
2023/09/24 04:50:04;;;;;;;11.10;10.20;;;;;;;;;;4968934;28;20046;-75
2023/09/24 04:52:29;;;;;;;11.07;10.00;;;;;;;;;;4964671;28;20037;-74
2023/09/24 04:54:55;;;;;;;11.05;9.95;;;;;;;;;;4967203;28;20031;-75
2023/09/24 04:57:21;;;;;;;11.00;10.10;;;;;;;;;;4965974;28;20159;-76
2023/09/24 04:59:47;;;;;;;10.65;9.75;;;;;;;;;;4966644;28;20117;-76
2023/09/24 05:02:12;;;;;;;11.32;10.15;;;;;;;;;;4974257;28;20385;-76
2023/09/24 05:04:38;;;;;;;12.43;11.32;;;;;;;;;;4970064;28;20484;-74
2023/09/24 05:07:03;;;;;;;13.60;12.13;;;;;;;;;;4971152;28;20123;-76
2023/09/24 05:09:30;;;;;;;11.48;10.50;;;;;;;;;;5001025;28;20038;-76
2023/09/24 05:11:55;;;;;;;12.00;10.90;;;;;;;;;;4969099;28;20404;-76
2023/09/24 05:14:21;;;;;;;11.02;10.13;;;;;;;;;;4975802;28;20042;-75
2023/09/24 05:16:50;;;;;;;10.73;9.75;;;;;;;;;;4979731;28;20073;-76
2023/09/24 05:19:16;;;;;;;12.07;10.88;;;;;;;;;;4974844;28;20066;-75
2023/09/24 05:21:42;;;;;;;11.43;10.52;;;;;;;;;;4971137;28;20074;-75
2023/09/24 05:24:08;;;;;;;11.57;10.30;;;;;;;;;;4975998;28;20649;-77
2023/09/24 05:26:34;;;;;;;11.07;9.98;;;;;;;;;;5000615;28;20496;-77
2023/09/24 05:28:59;;;;;;;11.35;10.35;;;;;;;;;;4968628;28;20137;-74
2023/09/24 05:31:25;;;;;;;14.23;10.15;;;;;;;;;;4973519;28;20489;-77
2023/09/24 05:33:50;;;;;;;11.00;10.00;;;;;;;;;;4969413;28;20032;-74
2023/09/24 05:36:16;;;;;;;12.52;10.80;;;;;;;;;;4969456;28;20153;-76
2023/09/24 05:38:41;;;;;;;10.57;9.73;;;;;;;;;;4969051;28;20123;-74
2023/09/24 05:41:07;;;;;;;10.98;9.88;;;;;;;;;;4969030;28;20034;-75
2023/09/24 05:43:33;;;;;;;11.13;10.13;;;;;;;;;;4969601;28;20202;-74
2023/09/24 05:46:01;;;;;;;11.43;10.35;;;;;;;;;;4968411;28;20039;-75
2023/09/24 05:48:27;;;;;;;12.20;11.10;;;;;;;;;;4970224;28;20030;-75
2023/09/24 05:50:53;;;;;;;10.65;9.65;;;;;;;;;;4969979;28;20046;-77
2023/09/24 05:53:19;;;;;;;11.05;10.15;;;;;;;;;;4966557;28;20118;-75
2023/09/24 05:55:54;;;;;;;11.43;10.38;;;;;;;;;;4964450;28;20177;-77
2023/09/24 05:58:20;;;;;;;12.02;10.90;;;;;;;;;;4980480;28;20038;-76
2023/09/24 06:00:46;;;;;;;13.45;10.85;;;;;;;;;;4964850;28;20035;-76
2023/09/24 06:03:14;;;;;;;11.85;10.60;;;;;;;;;;4967288;28;20538;-76
2023/09/24 06:05:40;;;;;;;12.23;11.23;;;;;;;;;;4964088;28;20516;-77
2023/09/24 06:08:07;;;;;;;14.40;11.73;;;;;;;;;;4966014;28;20117;-76
2023/09/24 06:10:34;;;;;;;12.88;11.68;;;;;;;;;;4967492;28;20543;-76
2023/09/24 06:13:03;;;;;;;12.48;11.40;;;;;;;;;;4994064;28;20598;-75
2023/09/24 06:15:29;;;;;;;14.93;11.43;;;;;;;;;;4991691;28;20036;-75
2023/09/24 06:17:54;;;;;;;12.48;10.70;;;;;;;;;;4983046;28;20034;-74
2023/09/24 06:20:20;;;;;;;11.63;10.50;;;;;;;;;;4964428;28;20404;-74
2023/09/24 06:22:53;;;;;;;13.98;10.65;;;;;;;;;;4966680;28;20362;-75
2023/09/24 06:25:22;;;;;;;11.50;10.50;;;;;;;;;;4966939;28;20041;-74
2023/09/24 06:27:48;;;;;;;11.68;10.38;;;;;;;;;;4973435;28;20034;-75
2023/09/24 06:30:14;;;;;;;12.38;11.38;;;;;;;;;;4968450;28;20037;-74
2023/09/24 06:32:39;;;;;;;11.85;10.73;;;;;;;;;;4966060;28;20049;-76
2023/09/24 06:35:05;;;;;;;10.82;9.88;;;;;;;;;;4969319;28;20535;-76
2023/09/24 06:37:31;;;;;;;13.68;11.45;;;;;;;;;;4963178;28;20068;-75
2023/09/24 06:39:57;;;;;;;11.32;10.18;;;;;;;;;;4983076;28;20050;-74
2023/09/24 06:42:23;;;;;;;11.73;10.60;;;;;;;;;;4969924;28;20039;-77
2023/09/24 06:44:50;;;;;;;9.70;9.00;;;;;;;;;;4987825;28;20042;-75
2023/09/24 06:47:15;;;;;;;14.00;11.05;;;;;;;;;;4981473;28;20062;-75
2023/09/24 06:49:41;;;;;;;11.15;10.30;;;;;;;;;;4973925;28;20105;-75
2023/09/24 06:52:07;;;;;;;12.63;11.35;;;;;;;;;;4969952;28;20034;-76
2023/09/24 06:54:34;;;;;;;10.80;9.93;;;;;;;;;;4968360;28;20039;-75
2023/09/24 06:57:00;;;;;;;9.68;8.98;;;;;;;;;;4970454;28;20043;-76
2023/09/24 06:59:26;;;;;;;11.23;10.30;;;;;;;;;;4967860;28;20045;-75
2023/09/24 07:01:54;;;;;;;12.10;10.88;;;;;;;;;;4969919;28;20030;-76
2023/09/24 07:04:20;;;;;;;11.23;10.32;;;;;;;;;;4986928;28;20067;-76
2023/09/24 07:06:46;;;;;;;9.93;9.15;;;;;;;;;;4968312;28;20069;-75
2023/09/24 07:09:12;;;;;;;10.98;10.18;;;;;;;;;;4965078;28;20038;-76
2023/09/24 07:11:38;;;;;;;10.55;9.60;;;;;;;;;;4983326;28;20050;-75
2023/09/24 07:14:07;;;;;;;11.10;10.20;;;;;;;;;;4966600;28;20400;-75
2023/09/24 07:16:34;;;;;;;;;;;;;;;;;;4969821;28;20500;-76
2023/09/24 07:19:00;;;;;;;10.98;10.13;;;;;;;;;;4996807;28;19961;-76
2023/09/24 07:21:28;;;;;;;10.38;9.57;;;;;;;;;;4966116;28;20030;-76
2023/09/24 07:23:56;;;;;;;10.73;10.02;;;;;;;;;;4966821;28;20038;-75
2023/09/24 07:26:31;;;;;;;10.90;9.93;;;;;;;;;;4981018;28;20584;-74
2023/09/24 07:28:57;;;;;;;9.93;9.10;;;;;;;;;;4983923;28;20046;-76
2023/09/24 07:31:25;;;;;;;9.63;8.82;;;;;;;;;;4978278;28;20128;-76
2023/09/24 07:33:53;;;;;;;9.65;8.85;;;;;;;;;;4966803;28;20043;-75
2023/09/24 07:36:21;;;;;;;9.40;8.70;;;;;;;;;;4996603;28;20632;-76
2023/09/24 07:38:49;;;;;;;9.93;9.23;;;;;;;;;;4965133;28;20061;-75
2023/09/24 07:41:15;;;;;;;10.52;9.38;;;;;;;;;;4968828;28;20043;-76
2023/09/24 07:43:44;;;;;;;9.63;8.85;;;;;;;;;;4983295;28;20096;-75
2023/09/24 07:46:15;;;;;;;8.93;8.32;;;;;;;;;;4978222;28;20126;-75
2023/09/24 07:48:44;;;;;;;9.50;8.90;;;;;;;;;;4963000;28;20042;-74
2023/09/24 07:51:11;;;;;;;9.52;8.73;;;;;;;;;;4990950;28;20131;-74
2023/09/24 07:53:37;;;;;;;9.25;8.65;;;;;;;;;;4930800;28;20420;-75
2023/09/24 07:56:07;;;;;;;9.38;8.68;;;;;;;;;;4968904;28;20049;-74
2023/09/24 07:58:33;;;;;;;9.13;8.52;;;;;;;;;;4965797;28;20062;-76
2023/09/24 08:01:10;;;;;;;8.70;8.10;;;;;;;;;;4964821;28;20042;-76
2023/09/24 08:03:42;;;;;;;9.20;8.50;;;;;;;;;;4967839;28;20085;-75
2023/09/24 08:06:08;;;;;;;8.80;8.20;;;;;;;;;;4996896;28;20654;-75
2023/09/24 08:08:37;;;;;;;8.90;8.15;;;;;;;;;;4969359;28;20149;-75
2023/09/24 08:11:03;;;;;;;8.65;8.00;;;;;;;;;;4995084;28;20098;-75
2023/09/24 08:13:32;;;;;;;8.80;8.20;;;;;;;;;;4963101;28;20460;-74
2023/09/24 08:15:57;;;;;;;8.48;7.97;;;;;;;;;;4960872;28;20079;-74
2023/09/24 08:18:24;;;;;;;8.25;7.75;;;;;;;;;;4969119;28;20057;-75
2023/09/24 08:20:53;;;;;;;8.98;8.38;;;;;;;;;;4965054;28;20527;-75
2023/09/24 08:23:28;;;;;;;8.63;8.03;;;;;;;;;;4961648;28;20039;-75
2023/09/24 08:25:53;;;;;;;8.73;8.13;;;;;;;;;;4981278;28;20296;-75
2023/09/24 08:28:19;;;;;;;8.68;8.07;;;;;;;;;;4962460;28;20072;-75
2023/09/24 08:30:45;;;;;;;8.70;8.20;;;;;;;;;;4962551;28;20039;-75
2023/09/24 08:33:11;;;;;;;8.75;8.15;;;;;;;;;;4967342;28;20054;-75
2023/09/24 08:35:39;;;;;;;8.45;7.93;;;;;;;;;;4969180;28;20073;-75
2023/09/24 08:38:05;;;;;;;8.80;7.93;;;;;;;;;;4966134;28;20046;-75
2023/09/24 08:40:31;;;;;;;8.13;7.63;;;;;;;;;;4963416;28;20117;-75
2023/09/24 08:42:57;;;;;;;8.35;7.57;;;;;;;;;;4965693;28;20085;-75
2023/09/24 08:45:26;;;;;;;8.45;7.80;;;;;;;;;;4965591;28;20119;-75
2023/09/24 08:47:52;;;;;;;8.60;7.90;;;;;;;;;;4963703;28;20771;-75
2023/09/24 08:50:18;;;;;;;8.15;7.35;;;;;;;;;;4960321;28;20097;-74
2023/09/24 08:52:45;;;;;;;8.27;7.68;;;;;;;;;;4962684;28;20046;-75
2023/09/24 08:55:12;;;;;;;8.15;7.47;;;;;;;;;;4961635;28;20035;-75
2023/09/24 08:57:39;;;;;;;8.15;7.45;;;;;;;;;;4962042;28;20035;-75
2023/09/24 09:00:06;;;;;;;7.60;6.97;;;;;;;;;;4962245;28;20114;-75
2023/09/24 09:02:32;;;;;;;7.68;7.07;;;;;;;;;;4961883;28;20146;-75
2023/09/24 09:04:58;;;;;;;8.00;7.30;;;;;;;;;;4961195;28;20031;-74
2023/09/24 09:07:24;;;;;;;8.98;7.63;;;;;;;;;;4963235;28;20100;-75
2023/09/24 09:09:54;;;;;;;7.70;7.00;;;;;;;;;;4964183;28;20067;-75
2023/09/24 09:12:21;;;;;;;7.80;7.07;;;;;;;;;;4960164;28;20042;-75
2023/09/24 09:14:46;;;;;;;8.18;7.38;;;;;;;;;;4962430;28;20063;-75
2023/09/24 09:17:12;;;;;;;7.70;7.10;;;;;;;;;;4968682;28;20073;-75
2023/09/24 09:19:57;;;;;;;8.55;7.95;;;;;;;;;;4965691;28;20039;-75
2023/09/24 09:22:25;;;;;;;8.60;7.63;;;;;;;;;;4960186;28;20034;-75
2023/09/24 09:25:01;;;;;;;7.88;7.30;;;;;;;;;;4963986;28;20039;-75
2023/09/24 09:27:34;;;;;;;8.57;7.70;;;;;;;;;;4978354;28;20042;-75
2023/09/24 09:30:15;;;;;;;8.02;7.40;;;;;;;;;;4970470;28;20038;-75
2023/09/24 09:32:45;;;;;;;8.00;7.40;;;;;;;;;;4971139;28;20118;-74
2023/09/24 09:35:11;;;;;;;8.27;7.60;;;;;;;;;;4967699;28;20065;-74
2023/09/24 09:37:38;;;;;;;8.20;7.40;;;;;;;;;;4969667;28;20034;-77
2023/09/24 09:40:06;;;;;;;8.63;8.00;;;;;;;;;;4949291;28;20038;-75
2023/09/24 09:42:35;;;;;;;8.10;7.30;;;;;;;;;;4982359;28;20042;-75
2023/09/24 09:45:07;;;;;;;8.13;7.50;;;;;;;;;;4963722;28;20042;-75
2023/09/24 09:47:34;;;;;;;8.73;8.02;;;;;;;;;;4969756;28;20572;-75
2023/09/24 09:50:00;;;;;;;8.30;7.60;;;;;;;;;;4968744;28;20038;-75
2023/09/24 09:52:34;;;;;;;8.13;7.43;;;;;;;;;;4969830;28;20730;-75
2023/09/24 09:55:05;;;;;;;7.70;7.10;;;;;;;;;;4965842;28;20618;-75
2023/09/24 09:57:34;;;;;;;9.10;7.07;;;;;;;;;;4968754;28;20035;-74
2023/09/24 10:00:10;;;;;;;;;;;;;;;;;;4979129;28;20099;-75
2023/09/24 10:02:41;;;;;;;;;;;;;;;;;;4967895;28;19918;-75
2023/09/24 10:05:08;;;;;;;8.00;7.40;;;;;;;;;;4964798;28;19921;-75
2023/09/24 10:07:38;;;;;;;7.40;6.90;;;;;;;;;;4965332;28;20038;-75
2023/09/24 10:10:30;;;;;;;8.40;6.93;;;;;;;;;;4978911;28;20046;-75
2023/09/24 10:12:56;;;;;;;9.00;7.95;;;;;;;;;;4966131;28;20055;-75
2023/09/24 10:15:26;;;;;;;7.57;6.97;;;;;;;;;;4964525;28;20097;-75
2023/09/24 10:18:07;;;;;;;9.77;7.40;;;;;;;;;;4970209;28;20034;-75
2023/09/24 10:20:53;;;;;;;7.75;7.13;;;;;;;;;;4963933;28;20026;-74
2023/09/24 10:23:31;;;;;;;8.30;7.60;;;;;;;;;;4992528;28;20050;-74
2023/09/24 10:26:04;;;;;;;10.57;6.55;;;;;;;;;;4964677;28;20077;-75
2023/09/24 10:28:50;;;;;;;7.47;6.80;;;;;;;;;;4965592;28;20505;-73
2023/09/24 10:31:24;;;;;;;7.40;6.90;;;;;;;;;;4962922;28;20039;-73
2023/09/24 10:33:52;;;;;;;7.90;7.20;;;;;;;;;;4964473;28;20604;-75
2023/09/24 10:36:26;;;;;;;7.55;7.05;;;;;;;;;;4963486;28;20039;-75
2023/09/24 10:39:04;;;;;;;7.88;7.18;;;;;;;;;;4966045;28;20038;-75
2023/09/24 10:41:32;;;;;;;7.43;6.78;;;;;;;;;;4959824;28;20074;-75
2023/09/24 10:44:27;;;;;;;7.30;6.47;;;;;;;;;;4966476;28;20716;-75
2023/09/24 10:46:53;;;;;;;6.93;6.32;;;;;;;;;;4963219;28;20042;-75
2023/09/24 10:49:24;;;;;;;7.53;6.80;;;;;;;;;;4963602;28;20058;-74
2023/09/24 10:51:59;;;;;;;7.40;6.90;;;;;;;;;;4968488;28;20034;-76
2023/09/24 10:54:25;;;;;;;7.90;7.30;;;;;;;;;;4978883;28;20039;-75
2023/09/24 10:56:52;;;;;;;8.13;7.43;;;;;;;;;;4965321;28;20038;-75
2023/09/24 10:59:31;;;;;;;7.78;7.30;;;;;;;;;;4960883;28;20043;-75
2023/09/24 11:01:57;;;;;;;8.18;7.40;;;;;;;;;;4963010;28;20034;-74
2023/09/24 11:04:26;;;;;;;8.65;7.60;;;;;;;;;;4963189;28;20037;-75
2023/09/24 11:06:51;;;;;;;8.60;8.05;;;;;;;;;;4962258;28;20047;-74
2023/09/24 11:09:21;;;;;;;8.90;8.00;;;;;;;;;;4960839;28;20097;-74
2023/09/24 11:11:47;;;;;;;8.73;8.13;;;;;;;;;;4965453;28;20038;-75
2023/09/24 11:14:14;;;;;;;9.00;8.35;;;;;;;;;;4962522;28;20055;-75
2023/09/24 11:16:39;;;;;;;8.35;7.65;;;;;;;;;;4980343;28;20077;-75
2023/09/24 11:19:05;;;;;;;8.30;7.60;;;;;;;;;;4965836;28;20065;-75
2023/09/24 11:21:31;;;;;;;8.10;7.50;;;;;;;;;;4963047;28;20034;-74
2023/09/24 11:23:57;;;;;;;8.50;7.80;;;;;;;;;;4962048;28;20035;-75
2023/09/24 11:26:29;;;;;;;8.40;7.72;;;;;;;;;;4961022;28;20038;-75
2023/09/24 11:28:56;;;;;;;8.68;8.07;;;;;;;;;;4964088;28;20117;-75
2023/09/24 11:31:25;;;;;;;8.43;7.82;;;;;;;;;;4962651;28;20074;-74
2023/09/24 11:33:55;;;;;;;8.00;7.40;;;;;;;;;;4961107;28;22125;-74
2023/09/24 11:36:21;;;;;;;7.63;7.03;;;;;;;;;;4964758;28;20093;-74
2023/09/24 11:38:46;;;;;;;8.15;7.35;;;;;;;;;;4966836;28;20037;-74
2023/09/24 11:41:14;;;;;;;8.70;8.00;;;;;;;;;;4977009;28;20042;-74
2023/09/24 11:43:41;;;;;;;7.82;7.22;;;;;;;;;;4989657;28;20809;-75
2023/09/24 11:46:25;;;;;;;8.63;7.93;;;;;;;;;;4963850;28;20066;-74
2023/09/24 11:48:52;;;;;;;8.20;7.60;;;;;;;;;;4963789;28;20047;-75
2023/09/24 11:51:20;;;;;;;8.10;7.50;;;;;;;;;;4961013;28;20045;-75
2023/09/24 11:53:46;;;;;;;8.43;7.83;;;;;;;;;;4965695;28;20053;-75
2023/09/24 11:56:11;;;;;;;8.98;8.02;;;;;;;;;;4964082;28;20399;-75
2023/09/24 11:58:37;;;;;;;8.38;7.57;;;;;;;;;;4961186;28;20732;-74
2023/09/24 12:01:04;;;;;;;8.45;7.72;;;;;;;;;;4961858;28;20081;-74
2023/09/24 12:03:29;;;;;;;8.55;7.85;;;;;;;;;;4961815;28;20041;-75
2023/09/24 12:05:55;;;;;;;8.13;7.45;;;;;;;;;;4961437;28;20039;-75
2023/09/24 12:08:21;;;;;;;8.52;7.90;;;;;;;;;;4966062;28;20043;-75
2023/09/24 12:10:46;;;;;;;8.15;7.60;;;;;;;;;;4961939;28;20061;-75
2023/09/24 12:13:14;;;;;;;8.15;7.55;;;;;;;;;;4958922;28;20043;-75
2023/09/24 12:15:39;;;;;;;8.40;7.80;;;;;;;;;;4989474;28;20082;-74
2023/09/24 12:18:06;;;;;;;8.52;7.97;;;;;;;;;;4979402;28;20862;-75
2023/09/24 12:20:34;;;;;;;8.57;7.90;;;;;;;;;;4964311;28;20034;-74
2023/09/24 12:23:01;;;;;;;8.60;8.00;;;;;;;;;;4968467;28;20124;-75
2023/09/24 12:25:28;;;;;;;8.90;8.20;;;;;;;;;;4966602;28;20524;-75
2023/09/24 12:27:54;;;;;;;8.85;8.25;;;;;;;;;;4961489;28;20042;-75
2023/09/24 12:30:20;;;;;;;8.25;7.75;;;;;;;;;;4963088;28;20457;-75
2023/09/24 12:32:46;;;;;;;8.40;7.70;;;;;;;;;;4965522;28;20045;-75
2023/09/24 12:35:12;;;;;;;8.38;7.63;;;;;;;;;;4962681;28;20030;-75
2023/09/24 12:37:39;;;;;;;8.50;7.90;;;;;;;;;;4980202;28;20135;-75
2023/09/24 12:40:07;;;;;;;8.45;7.85;;;;;;;;;;4990984;28;20407;-75
2023/09/24 12:42:33;;;;;;;8.55;7.95;;;;;;;;;;4963325;28;20062;-75
2023/09/24 12:44:59;;;;;;;8.80;8.20;;;;;;;;;;4965500;28;20045;-75
2023/09/24 12:47:25;;;;;;;8.50;7.90;;;;;;;;;;4968338;28;20039;-74
2023/09/24 12:49:56;;;;;;;8.45;7.90;;;;;;;;;;4965340;28;20113;-74
2023/09/24 12:52:24;;;;;;;8.85;8.20;;;;;;;;;;4959633;28;20110;-74
2023/09/24 12:54:49;;;;;;;8.68;8.18;;;;;;;;;;4964497;28;20573;-75
2023/09/24 12:57:15;;;;;;;8.80;8.10;;;;;;;;;;4967228;28;20121;-75
2023/09/24 12:59:41;;;;;;;9.02;8.43;;;;;;;;;;4961116;28;20046;-75
2023/09/24 13:02:06;;;;;;;9.20;8.43;;;;;;;;;;4967585;28;20392;-74
2023/09/24 13:04:34;;;;;;;8.75;8.15;;;;;;;;;;4964152;28;20382;-74
2023/09/24 13:06:59;;;;;;;8.88;8.23;;;;;;;;;;4966173;28;20045;-75
2023/09/24 13:09:25;;;;;;;8.90;8.20;;;;;;;;;;4963356;28;20027;-75
2023/09/24 13:11:50;;;;;;;8.80;8.20;;;;;;;;;;4964983;28;20043;-75
2023/09/24 13:14:16;;;;;;;9.10;8.40;;;;;;;;;;4964936;28;20038;-74
2023/09/24 13:16:42;;;;;;;8.95;8.32;;;;;;;;;;4963042;28;20034;-74
2023/09/24 13:19:11;;;;;;;8.63;8.05;;;;;;;;;;4965375;28;20388;-74
2023/09/24 13:21:38;;;;;;;8.75;8.15;;;;;;;;;;4967232;28;20043;-74
2023/09/24 13:24:04;;;;;;;9.25;8.65;;;;;;;;;;4967612;28;20065;-74
2023/09/24 13:26:29;;;;;;;8.93;8.30;;;;;;;;;;4969144;28;20587;-74
2023/09/24 13:28:55;;;;;;;8.60;7.90;;;;;;;;;;4981833;28;20489;-74
2023/09/24 13:31:21;;;;;;;9.10;8.48;;;;;;;;;;4956632;28;20047;-75
2023/09/24 13:33:47;;;;;;;9.30;8.50;;;;;;;;;;4964774;28;20039;-74
2023/09/24 13:36:12;;;;;;;9.10;8.35;;;;;;;;;;4968203;28;20654;-74
2023/09/24 13:38:38;;;;;;;9.23;8.40;;;;;;;;;;4967410;28;20034;-75
2023/09/24 13:41:04;;;;;;;9.07;8.30;;;;;;;;;;4972119;28;20057;-75
2023/09/24 13:43:30;;;;;;;9.20;8.60;;;;;;;;;;4966033;28;20039;-75
2023/09/24 13:45:56;;;;;;;9.15;8.55;;;;;;;;;;4965339;28;20149;-75
2023/09/24 13:48:22;;;;;;;9.70;8.90;;;;;;;;;;4968222;28;20034;-75
2023/09/24 13:50:49;;;;;;;9.10;8.50;;;;;;;;;;4970238;28;20053;-74
2023/09/24 13:53:14;;;;;;;8.55;8.05;;;;;;;;;;4971198;28;20031;-74
2023/09/24 13:55:43;;;;;;;8.73;8.02;;;;;;;;;;4973477;28;20035;-76
2023/09/24 13:58:09;;;;;;;9.20;8.60;;;;;;;;;;4973184;28;20030;-75
2023/09/24 14:00:35;;;;;;;9.10;8.43;;;;;;;;;;4967775;28;20039;-75
2023/09/24 14:03:00;;;;;;;9.15;8.35;;;;;;;;;;4965643;28;20039;-75
2023/09/24 14:05:26;;;;;;;9.00;8.38;;;;;;;;;;4982561;28;20030;-75
2023/09/24 14:12:16;;;;;;;9.10;8.50;;;;;;;;;;4966370;28;20034;-75
2023/09/24 14:13:26;;;;;;;8.63;8.02;;;;;;;;;;4968793;28;20110;-75
2023/09/24 14:15:51;;;;;;;8.45;7.85;;;;;;;;;;4967678;28;20048;-75
2023/09/24 14:18:17;;;;;;;9.45;8.73;;;;;;;;;;4971432;28;20035;-75
2023/09/24 14:20:42;;;;;;;10.00;8.98;;;;;;;;;;4992370;28;20050;-74
2023/09/24 14:23:08;;;;;;;9.43;8.73;;;;;;;;;;4967114;28;20030;-75
2023/09/24 14:25:41;;;;;;;8.80;8.20;;;;;;;;;;4967097;28;20037;-74
2023/09/24 14:28:06;;;;;;;8.75;7.95;;;;;;;;;;4991227;28;20034;-74
2023/09/24 14:30:37;;;;;;;8.85;8.25;;;;;;;;;;4973269;28;20098;-75
2023/09/24 14:33:03;;;;;;;8.70;8.00;;;;;;;;;;4986087;28;20042;-75
2023/09/24 14:35:35;;;;;;;8.60;8.00;;;;;;;;;;4972213;28;20113;-75
2023/09/24 14:38:10;;;;;;;8.50;8.00;;;;;;;;;;4973655;28;20038;-77